Time;durP1;ratioP1;P1;durP2;ratioP2;P2;SDS_P1;SDS_P2;PMS_P1;PMS_P2;Temp;Humidity;BMP_temperature;BMP_pressure;BME280_temperature;BME280_humidity;BME280_pressure;Samples;Min_cycle;Max_cycle;Signal;HPM_P1;HPM_P2
2021/05/13 00:01:52;;;;;;;;;13.25;13.25;;;;;10.95;77.38;100946.25;4919022;29;11351;-79
2021/05/13 00:04:42;;;;;;;;;13.25;13.25;;;;;11.10;76.96;100950.47;4916038;29;11242;-79
2021/05/13 00:07:39;;;;;;;;;14.25;14.25;;;;;11.11;77.26;100952.09;4915103;29;11057;-80
2021/05/13 00:10:34;;;;;;;;;10.00;10.00;;;;;11.21;76.89;100959.25;4400583;29;15140560;-79
2021/05/13 00:13:32;;;;;;;;;12.75;12.75;;;;;11.18;76.65;100944.09;4902899;29;8862;-79
2021/05/13 00:16:31;;;;;;;;;12.75;12.75;;;;;11.07;77.12;100937.28;4903044;29;10998;-78
2021/05/13 00:19:27;;;;;;;;;11.50;11.50;;;;;11.04;77.80;100936.00;4915516;29;11083;-79
2021/05/13 00:22:24;;;;;;;;;10.00;10.00;;;;;10.96;77.83;100938.75;4915603;29;11022;-79
2021/05/13 00:25:20;;;;;;;;;15.50;15.50;;;;;10.99;77.62;100933.41;4916526;29;11788;-79
2021/05/13 00:27:49;;;;;;;;;14.00;14.00;;;;;10.82;77.93;100939.75;4917494;29;11166;-79
2021/05/13 00:30:45;;;;;;;;;15.75;15.75;;;;;10.93;77.46;100943.00;4915594;29;11009;-79
2021/05/13 00:33:40;;;;;;;;;11.50;11.50;;;;;10.79;77.69;100939.59;4914685;29;11252;-79
2021/05/13 00:36:38;;;;;;;;;14.50;14.50;;;;;10.77;78.03;100936.34;4902823;29;11244;-79
2021/05/13 00:39:33;;;;;;;;;15.50;15.50;;;;;10.80;77.56;100939.25;4915297;29;11334;-79
2021/05/13 00:42:29;;;;;;;;;13.25;13.25;;;;;10.91;77.11;100942.53;4915255;29;11306;-79
2021/05/13 00:45:25;;;;;;;;;15.25;15.25;;;;;10.65;77.93;100945.28;4915481;29;11342;-79
2021/05/13 00:48:21;;;;;;;;;10.00;10.00;;;;;10.51;78.48;100937.16;4915312;29;11533;-79
2021/05/13 00:51:16;;;;;;;;;15.75;15.75;;;;;10.61;78.25;100943.50;4915217;29;11212;-79
2021/05/13 00:54:13;;;;;;;;;15.50;15.50;;;;;10.62;78.13;100945.94;4917755;29;11541;-78
2021/05/13 00:57:12;;;;;;;;;15.25;15.25;;;;;10.65;78.05;100945.28;4914372;29;11648;-79
2021/05/13 01:00:29;;;;;;;;;16.25;16.25;;;;;10.68;78.40;100939.13;4916670;29;11555;-79
2021/05/13 01:03:23;;;;;;;;;19.00;19.00;;;;;10.70;78.57;100945.13;4916489;29;11552;-78
2021/05/13 01:06:19;;;;;;;;;15.25;15.25;;;;;10.71;78.67;100955.03;4930019;29;11259;-79
2021/05/13 01:09:23;;;;;;;;;16.00;16.00;;;;;10.76;78.39;100956.84;4933950;29;11040;-79
2021/05/13 01:12:20;;;;;;;;;17.25;17.25;;;;;10.76;77.53;100962.38;4934276;29;11510;-79
2021/05/13 01:15:25;;;;;;;;;16.50;16.50;;;;;10.76;77.72;100968.72;4934113;29;11301;-79
2021/05/13 01:18:23;;;;;;;;;13.75;13.75;;;;;10.58;77.74;100967.06;4933967;29;12259;-79
2021/05/13 01:21:19;;;;;;;;;13.00;13.00;;;;;10.42;77.97;100957.63;4923888;29;11597;-79
2021/05/13 01:24:12;;;;;;;;;16.25;13.25;;;;;10.53;78.37;100951.47;4915909;29;11539;-78
2021/05/13 01:27:08;;;;;;;;;8.50;8.50;;;;;10.33;79.33;100952.09;4918659;29;11090;-79
2021/05/13 01:30:04;;;;;;;;;9.00;9.00;;;;;10.37;78.71;100955.03;4918503;29;11266;-79
2021/05/13 01:33:00;;;;;;;;;8.50;8.50;;;;;10.35;78.34;100947.06;4905962;29;11193;-79
2021/05/13 01:35:56;;;;;;;;;11.25;11.25;;;;;10.33;78.62;100949.31;4928030;29;11537;-79
2021/05/13 01:38:51;;;;;;;;;12.25;12.25;;;;;10.22;79.19;100954.34;4937461;29;11249;-79
2021/05/13 01:41:47;;;;;;;;;9.00;9.00;;;;;10.36;78.97;100965.28;4937512;29;11221;-79
2021/05/13 01:44:44;;;;;;;;;10.50;10.25;;;;;10.34;79.03;100975.00;4924637;29;11499;-79
2021/05/13 01:47:39;;;;;;;;;12.00;12.00;;;;;10.25;78.52;100975.81;4937897;29;11494;-79
2021/05/13 01:50:35;;;;;;;;;12.75;12.75;;;;;10.15;78.60;100972.50;4937139;29;11534;-79
2021/05/13 01:53:30;;;;;;;;;13.00;13.00;;;;;10.05;79.43;100979.16;4935572;29;11518;-79
2021/05/13 01:56:26;;;;;;;;;13.25;13.25;;;;;10.09;79.50;100991.19;4918336;29;11146;-79
2021/05/13 01:59:21;;;;;;;;;19.75;15.75;;;;;9.99;79.05;100983.19;4918071;29;11370;-78
2021/05/13 02:01:49;;;;;;;;;21.00;19.50;;;;;9.89;79.44;100994.50;4918999;29;11580;-79
2021/05/13 02:04:44;;;;;;;;;14.50;14.50;;;;;9.98;78.74;100995.38;4917722;29;11559;-78
2021/05/13 02:07:40;;;;;;;;;14.25;14.25;;;;;9.99;78.73;100999.78;4898993;29;11554;-79
2021/05/13 02:10:36;;;;;;;;;14.00;14.00;;;;;9.99;78.82;101014.41;4898914;29;11547;-79
2021/05/13 02:13:32;;;;;;;;;11.00;11.00;;;;;9.94;78.17;101014.53;4899630;29;11628;-79
2021/05/13 02:16:27;;;;;;;;;12.00;12.00;;;;;9.92;78.19;101004.94;4899022;29;11493;-79
2021/05/13 02:19:23;;;;;;;;;13.25;13.25;;;;;10.08;77.91;101010.84;4898754;29;11535;-79
2021/05/13 02:21:59;;;;;;;;;12.00;12.00;;;;;9.91;78.22;101008.84;4899976;29;12374;-78
2021/05/13 02:24:55;;;;;;;;;14.50;14.50;;;;;9.86;78.50;101011.72;4898950;29;12389;-78
2021/05/13 02:27:50;;;;;;;;;13.50;13.50;;;;;9.68;78.00;101008.91;4898813;29;11322;-79
2021/05/13 02:30:46;;;;;;;;;15.00;15.00;;;;;9.78;77.89;101015.28;4898622;29;11560;-79
2021/05/13 02:33:13;;;;;;;;;15.00;15.00;;;;;9.74;78.03;101006.81;4899564;29;11542;-79
2021/05/13 02:36:10;;;;;;;;;16.00;16.00;;;;;9.54;78.20;101002.63;4920866;29;11517;-79
2021/05/13 02:39:06;;;;;;;;;17.25;17.25;;;;;9.54;78.84;100990.78;4936251;29;11537;-79
2021/05/13 02:42:01;;;;;;;;;7.75;7.75;;;;;9.52;79.07;100998.56;4936424;29;11671;-79
2021/05/13 02:44:57;;;;;;;;;18.75;18.75;;;;;9.61;78.41;100993.91;4936052;29;11472;-79
2021/05/13 02:47:52;;;;;;;;;13.75;13.75;;;;;9.76;78.04;100999.03;4934380;29;11530;-79
2021/05/13 02:50:20;;;;;;;;;17.00;17.00;;;;;9.68;78.37;100997.84;4937251;29;12351;-79
2021/05/13 02:53:16;;;;;;;;;18.75;18.75;;;;;9.72;78.22;100989.72;4936008;29;11551;-79
2021/05/13 02:56:11;;;;;;;;;26.00;26.00;;;;;9.68;78.75;100989.56;4931751;29;11624;-78
2021/05/13 02:58:39;;;;;;;;;32.00;32.00;;;;;9.79;79.12;100997.56;4918440;29;11547;-79
2021/05/13 03:01:11;;;;;;;;;46.00;39.00;;;;;9.94;79.71;101000.72;4920919;29;11632;-79
2021/05/13 03:04:07;;;;;;;;;69.75;53.50;;;;;10.02;79.72;100999.13;4918829;29;11646;-78
2021/05/13 03:07:03;;;;;;;;;40.25;37.75;;;;;9.90;80.04;100999.75;4919420;29;11644;-79
2021/05/13 03:09:58;;;;;;;;;36.25;33.50;;;;;9.94;80.15;100999.91;4912958;29;11686;-79
2021/05/13 03:12:55;;;;;;;;;26.00;26.00;;;;;10.08;80.27;101003.38;4911816;29;11681;-79
2021/05/13 03:15:25;;;;;;;;;27.50;27.25;;;;;10.28;79.88;101000.06;4898160;29;11559;-79
2021/05/13 03:18:24;;;;;;;;;25.00;25.00;;;;;10.37;79.82;100996.50;4924261;29;11535;-79
2021/05/13 03:21:40;;;;;;;;;17.25;17.25;;;;;10.46;79.55;100997.31;4897738;29;11552;-78
2021/05/13 03:24:49;;;;;;;;;14.00;14.00;;;;;10.56;79.24;100997.81;4908772;29;12299;-79
2021/05/13 03:27:55;;;;;;;;;18.75;18.25;;;;;10.55;78.72;101004.50;4917007;29;11512;-78
2021/05/13 03:30:27;;;;;;;;;14.75;14.75;;;;;10.61;78.16;101010.69;4911273;29;11559;-79
2021/05/13 03:33:23;;;;;;;;;16.50;16.50;;;;;10.57;78.30;101010.50;4897623;29;11464;-78
2021/05/13 03:36:19;;;;;;;;;19.25;19.25;;;;;10.65;77.83;101002.56;4897610;29;11529;-79
2021/05/13 03:39:14;;;;;;;;;18.25;16.50;;;;;10.74;77.96;100998.69;4903891;29;11522;-79
2021/05/13 03:42:10;;;;;;;;;22.50;22.50;;;;;10.93;77.83;100997.53;4912765;29;11584;-79
2021/05/13 03:45:06;;;;;;;;;24.50;23.25;;;;;11.13;77.40;101002.41;4916491;29;11624;-79
2021/05/13 03:48:04;;;;;;;;;20.00;20.00;;;;;11.17;77.87;101011.69;4929230;29;11514;-79
2021/05/13 03:50:59;;;;;;;;;19.75;19.75;;;;;11.29;77.71;101017.38;4929795;29;11543;-79
2021/05/13 03:53:55;;;;;;;;;14.75;14.00;;;;;11.49;76.80;101024.16;4927101;29;11372;-79
2021/05/13 03:56:51;;;;;;;;;8.00;8.00;;;;;11.55;76.38;101020.09;4916738;29;11183;-79
2021/05/13 03:59:46;;;;;;;;;13.75;13.75;;;;;11.65;76.56;101038.31;4916255;29;11075;-79
2021/05/13 04:02:42;;;;;;;;;14.25;14.25;;;;;11.79;76.33;101041.69;4915915;29;11186;-79
2021/05/13 04:05:37;;;;;;;;;18.00;18.00;;;;;11.87;75.41;101051.16;4914567;29;11000;-79
2021/05/13 04:08:33;;;;;;;;;11.50;11.50;;;;;11.99;75.31;101056.84;4916271;29;11176;-79
2021/05/13 04:11:28;;;;;;;;;17.50;16.25;;;;;12.05;75.21;101051.94;4914224;29;10933;-79
2021/05/13 04:14:24;;;;;;;;;17.75;17.75;;;;;12.31;74.29;101044.31;4897536;29;11037;-79
2021/05/13 04:17:07;;;;;;;;;15.50;15.50;;;;;12.35;74.17;101058.34;4920570;29;10848;-79
2021/05/13 04:19:36;;;;;;;;;12.75;12.75;;;;;12.99;78.69;101045.03;4927721;29;10680;-79
2021/05/13 04:22:31;;;;;;;;;13.25;13.25;;;;;13.48;74.38;101047.22;4909017;29;11077;-78
2021/05/13 04:25:27;;;;;;;;;14.50;13.25;;;;;13.25;74.78;101035.69;4915387;29;10625;-78
2021/05/13 04:28:22;;;;;;;;;27.25;26.50;;;;;14.62;86.64;101043.59;4915421;29;10306;-78
2021/05/13 04:30:50;;;;;;;;;17.25;17.25;;;;;14.33;78.08;101029.88;4916716;29;10713;-78
2021/05/13 04:33:18;;;;;;;;;15.75;15.75;;;;;14.12;73.48;101038.38;4916501;29;10855;-78
2021/05/13 04:35:45;;;;;;;;;16.00;15.25;;;;;14.30;74.41;101036.97;4916689;29;10155;-78
2021/05/13 04:38:16;;;;;;;;;20.50;20.50;;;;;14.68;79.07;101044.16;4916191;29;10442;-77
2021/05/13 04:40:45;;;;;;;;;13.00;13.00;;;;;14.91;75.95;101041.69;4916494;29;10299;-78
2021/05/13 04:43:13;;;;;;;;;17.25;17.25;;;;;14.52;69.65;101046.03;4931103;29;10073;-78
2021/05/13 04:45:41;;;;;;;;;18.75;18.75;;;;;15.34;81.70;101052.13;4916447;29;9887;-78
2021/05/13 04:48:28;;;;;;;;;20.25;20.25;;;;;15.17;72.90;101050.41;4916526;29;10095;-78
2021/05/13 04:50:57;;;;;;;;;20.75;20.75;;;;;15.54;74.42;101048.31;4916251;29;10047;-78
2021/05/13 04:53:25;;;;;;;;;18.00;18.00;;;;;15.28;71.19;101046.00;4899596;29;10752;-78
2021/05/13 04:55:52;;;;;;;;;22.25;22.25;;;;;14.88;67.82;101057.13;4916243;29;9899;-78
2021/05/13 04:58:20;;;;;;;;;16.75;16.75;;;;;15.68;78.77;101059.06;4916236;29;9972;-78
2021/05/13 05:00:49;;;;;;;;;17.50;17.50;;;;;16.30;78.55;101060.28;4918524;29;9908;-78
2021/05/13 05:03:17;;;;;;;;;15.33;15.33;;;;;16.30;74.07;101049.13;4920349;29;9568;-78
2021/05/13 05:05:45;;;;;;;;;23.25;21.50;;;;;16.50;74.04;101055.63;4920196;29;9422;-78
2021/05/13 05:08:13;;;;;;;;;17.75;17.75;;;;;16.32;65.63;101062.72;4918835;29;9708;-77
2021/05/13 05:10:43;;;;;;;;;18.67;18.00;;;;;16.47;70.45;101070.28;4904079;29;9414;-76
2021/05/13 05:13:10;;;;;;;;;14.00;14.00;;;;;16.86;73.01;101060.06;4922652;29;9446;-76
2021/05/13 05:15:53;;;;;;;;;16.67;16.00;;;;;16.63;66.79;101061.88;4919221;29;8943;-76
2021/05/13 05:18:49;;;;;;;;;17.67;17.67;;;;;16.49;62.63;101062.38;4918942;29;9189;-77
2021/05/13 05:21:45;;;;;;;;;18.33;18.33;;;;;16.61;69.23;101055.84;4936776;29;9241;-77
2021/05/13 05:24:13;;;;;;;;;15.75;15.75;;;;;16.65;65.54;101054.78;4921795;29;9225;-77
2021/05/13 05:26:43;;;;;;;;;18.33;18.33;;;;;16.48;61.65;101057.13;4920014;29;8883;-76
2021/05/13 05:29:39;;;;;;;;;14.00;12.00;;;;;16.71;64.19;101054.50;4918086;29;9090;-76
2021/05/13 05:32:34;;;;;;;;;12.67;12.67;;;;;16.75;64.92;101061.81;4920187;29;8954;-77
2021/05/13 05:35:26;;;;;;;;;14.00;14.00;;;;;16.82;63.37;101061.97;4906208;29;9030;-77
2021/05/13 05:38:21;;;;;;;;;13.00;12.00;;;;;17.43;62.54;101063.28;4918523;29;9108;-77
2021/05/13 05:41:17;;;;;;;;;12.50;12.50;;;;;17.05;61.75;101070.47;4918609;29;8942;-77
2021/05/13 05:44:13;;;;;;;;;16.67;15.67;;;;;17.43;64.05;101061.28;4919440;29;9625;-77
2021/05/13 05:47:11;;;;;;;;;20.67;18.67;;;;;17.88;64.79;101061.78;4919295;29;8941;-77
2021/05/13 05:49:39;;;;;;;;;21.00;19.67;;;;;18.13;66.20;101065.03;4919253;29;9015;-77
2021/05/13 05:52:35;;;;;;;;;15.50;13.25;;;;;17.83;56.94;101068.47;4926981;29;9124;-76
2021/05/13 05:55:32;;;;;;;;;10.00;10.00;;;;;17.66;60.00;101072.53;4918010;29;8937;-75
2021/05/13 05:58:14;;;;;;;;;10.75;10.75;;;;;17.63;54.82;101076.06;4918594;29;8930;-76
2021/05/13 06:00:41;;;;;;;;;17.25;14.25;;;;;18.07;66.87;101070.13;4902551;29;8839;-77
2021/05/13 06:03:40;;;;;;;;;11.00;11.00;;;;;18.20;55.07;101067.94;4904649;29;8855;-77
2021/05/13 06:06:13;;;;;;;;;9.50;9.50;;;;;18.04;52.34;101070.88;4919291;29;8903;-74
2021/05/13 06:08:41;;;;;;;;;10.50;10.50;;;;;17.68;51.66;101074.94;4916505;29;9682;-75
2021/05/13 06:11:37;;;;;;;;;7.25;7.25;;;;;18.14;56.33;101066.63;4916278;29;8839;-75
2021/05/13 06:14:32;;;;;;;;;9.00;9.00;;;;;18.08;51.77;101082.13;4915875;29;8828;-75
2021/05/13 06:17:28;;;;;;;;;8.25;8.25;;;;;18.26;51.03;101072.06;4915461;29;8851;-75
2021/05/13 06:20:29;;;;;;;;;9.25;9.25;;;;;17.94;49.74;101080.69;4915349;29;8839;-75
2021/05/13 06:23:25;;;;;;;;;10.25;10.25;;;;;17.98;55.13;101072.34;4916038;29;8869;-76
2021/05/13 06:26:29;;;;;;;;;8.00;8.00;;;;;18.05;52.51;101076.09;4903366;29;8835;-75
2021/05/13 06:29:04;;;;;;;;;6.25;6.25;;;;;17.83;51.52;101076.88;4916126;29;8950;-74
2021/05/13 06:32:00;;;;;;;;;8.75;8.75;;;;;18.04;47.98;101091.28;4914249;29;8886;-76
2021/05/13 06:34:30;;;;;;;;;11.75;11.75;;;;;18.28;49.14;101084.50;4916880;29;8859;-76
2021/05/13 06:36:58;;;;;;;;;11.00;11.00;;;;;18.55;56.97;101073.31;4916816;29;8851;-76
2021/05/13 06:39:54;;;;;;;;;7.00;7.00;;;;;18.67;51.77;101080.75;4901771;29;8843;-75
2021/05/13 06:42:22;;;;;;;;;8.25;8.25;;;;;18.73;52.50;101073.66;4914656;29;8863;-74
2021/05/13 06:44:51;;;;;;;;;8.50;8.50;;;;;18.60;47.13;101073.81;4916732;29;8859;-76
2021/05/13 06:47:20;;;;;;;;;7.50;7.50;;;;;18.79;53.39;101060.94;4900194;29;8855;-74
2021/05/13 06:50:18;;;;;;;;;11.00;11.00;;;;;18.91;50.71;101069.09;4902679;29;8859;-76
2021/05/13 06:53:14;;;;;;;;;8.00;8.00;;;;;18.82;47.11;101062.97;4915462;29;9608;-75
2021/05/13 06:56:12;;;;;;;;;7.75;7.75;;;;;19.18;47.06;101067.09;4915255;29;8851;-76
2021/05/13 06:59:10;;;;;;;;;5.25;5.25;;;;;19.17;47.20;101059.88;4915155;29;8982;-75
2021/05/13 07:01:47;;;;;;;;;7.25;7.25;;;;;18.76;46.71;101062.47;4915593;29;8863;-76
2021/05/13 07:04:46;;;;;;;;;7.00;7.00;;;;;19.02;48.76;101063.66;4914984;29;9598;-75
2021/05/13 07:07:42;;;;;;;;;7.75;7.75;;;;;19.43;46.80;101065.38;4911516;29;8870;-74
2021/05/13 07:10:11;;;;;;;;;10.00;9.25;;;;;19.61;47.59;101065.63;4931849;29;8843;-76
2021/05/13 07:13:07;;;;;;;;;10.50;10.00;;;;;19.80;45.78;101073.06;4917851;29;8855;-76
2021/05/13 07:16:03;;;;;;;;;6.25;6.25;;;;;19.56;44.69;101065.94;4903867;29;8851;-76
2021/05/13 07:19:00;;;;;;;;;8.00;8.00;;;;;18.80;43.20;101063.34;4916136;29;9631;-75
2021/05/13 07:21:55;;;;;;;;;8.75;8.75;;;;;19.03;45.07;101077.28;4910472;29;8881;-75
2021/05/13 07:24:23;;;;;;;;;9.50;9.50;;;;;19.50;46.87;101075.09;4897723;29;8901;-75
2021/05/13 07:27:20;;;;;;;;;7.00;7.00;;;;;19.71;43.50;101066.97;4897391;29;8884;-76
2021/05/13 07:29:49;;;;;;;;;9.75;9.75;;;;;19.78;44.38;101067.00;4905867;29;8865;-75
2021/05/13 07:32:17;;;;;;;;;10.25;10.25;;;;;19.90;49.35;101063.13;4930081;29;8875;-75
2021/05/13 07:34:45;;;;;;;;;7.50;7.50;;;;;20.14;46.04;101061.75;4917318;29;8862;-76
2021/05/13 07:37:13;;;;;;;;;7.00;7.00;;;;;19.91;41.80;101064.75;4900519;29;8871;-76
2021/05/13 07:40:10;;;;;;;;;9.25;9.25;;;;;20.12;43.88;101075.38;4903659;29;8878;-76
2021/05/13 07:43:06;;;;;;;;;9.00;9.00;;;;;20.39;42.37;101070.38;4916687;29;8867;-76
2021/05/13 07:45:56;;;;;;;;;10.75;10.75;;;;;20.66;42.72;101074.66;4916774;29;9644;-75
2021/05/13 07:48:52;;;;;;;;;8.00;8.00;;;;;20.81;42.85;101075.56;4896945;29;8860;-75
2021/05/13 07:51:48;;;;;;;;;8.00;8.00;;;;;20.57;43.05;101079.81;4884696;29;8976;-75
2021/05/13 07:54:19;;;;;;;;;6.50;6.50;;;;;20.75;44.37;101083.56;4916538;29;8847;-75
2021/05/13 07:57:15;;;;;;;;;7.00;7.00;;;;;21.11;45.73;101072.53;4916541;29;8986;-76
2021/05/13 08:00:11;;;;;;;;;9.00;9.00;;;;;21.29;44.83;101067.00;4916014;29;9659;-76
2021/05/13 08:03:07;;;;;;;;;7.25;7.25;;;;;21.12;42.67;101068.50;4915914;29;8873;-75
2021/05/13 08:06:03;;;;;;;;;6.00;6.00;;;;;20.83;40.86;101064.72;4915609;29;8873;-75
2021/05/13 08:09:01;;;;;;;;;6.75;6.75;;;;;20.91;39.69;101062.78;4915637;29;8863;-76
2021/05/13 08:12:03;;;;;;;;;6.00;6.00;;;;;20.87;40.73;101074.00;4916650;29;8852;-76
2021/05/13 08:14:59;;;;;;;;;6.00;6.00;;;;;21.28;39.76;101069.03;4915892;29;8859;-76
2021/05/13 08:17:43;;;;;;;;;7.00;7.00;;;;;21.42;37.83;101073.09;4915672;29;8958;-76
2021/05/13 08:20:39;;;;;;;;;9.00;9.00;;;;;21.67;39.51;101085.25;4915381;29;8886;-75
2021/05/13 08:23:34;;;;;;;;;6.25;6.25;;;;;21.74;38.20;101081.66;4904339;29;9556;-76
2021/05/13 08:26:02;;;;;;;;;5.25;5.25;;;;;22.01;38.11;101087.75;4897555;29;9047;-76
2021/05/13 08:28:58;;;;;;;;;7.00;7.00;;;;;21.84;38.55;101089.31;4883844;29;8861;-74
2021/05/13 08:31:39;;;;;;;;;5.25;5.25;;;;;22.13;36.52;101082.56;4882921;29;8873;-75
2021/05/13 08:34:07;;;;;;;;;5.25;5.25;;;;;21.98;37.38;101082.91;4880974;29;8881;-75
2021/05/13 08:36:49;;;;;;;;;9.50;8.50;;;;;22.12;38.98;101078.16;4897476;29;9742;-75
2021/05/13 08:39:21;;;;;;;;;6.00;5.25;;;;;22.32;37.77;101086.22;4896393;29;8880;-73
2021/05/13 08:42:03;;;;;;;;;9.00;9.00;;;;;22.42;37.71;101080.56;4897702;29;8900;-75
2021/05/13 08:44:31;;;;;;;;;7.50;7.50;;;;;21.98;39.36;101080.91;4893536;29;8847;-76
2021/05/13 08:47:27;;;;;;;;;7.25;7.25;;;;;22.26;38.81;101083.00;4900700;29;8929;-74
2021/05/13 08:49:55;;;;;;;;;5.25;5.25;;;;;22.53;39.41;101068.47;4888137;29;9042;-75
2021/05/13 08:52:50;;;;;;;;;10.25;10.25;;;;;22.62;40.38;101066.88;4896318;29;8853;-74
2021/05/13 08:55:19;;;;;;;;;6.25;6.25;;;;;22.33;38.57;101066.09;4915582;29;8855;-74
2021/05/13 08:58:14;;;;;;;;;6.00;6.00;;;;;22.71;38.00;101064.47;4902594;29;9569;-73
2021/05/13 09:00:55;;;;;;;;;12.25;10.50;;;;;22.99;39.27;101079.72;4914407;29;8906;-74
2021/05/13 09:03:30;;;;;;;;;6.00;6.00;;;;;22.68;39.63;101070.88;4916134;29;8890;-75
2021/05/13 09:06:31;;;;;;;;;4.00;4.00;;;;;22.38;37.62;101067.69;4915133;29;8843;-74
2021/05/13 09:09:19;;;;;;;;;4.00;4.00;;;;;22.19;38.56;101072.53;4916139;29;9155;-74
2021/05/13 09:11:57;;;;;;;;;4.50;4.50;;;;;22.17;39.79;101062.88;4915354;29;8866;-76
2021/05/13 09:14:58;;;;;;;;;3.60;3.00;;;;;22.56;39.64;101068.50;4902724;29;8859;-76
2021/05/13 09:17:56;;;;;;;;;4.25;4.25;;;;;22.62;41.10;101060.41;4914956;29;8883;-75
2021/05/13 09:20:37;;;;;;;;;6.00;6.00;;;;;22.76;40.50;101057.59;4915906;29;8875;-76
2021/05/13 09:23:16;;;;;;;;;4.40;4.40;;;;;22.60;38.53;101043.13;4916262;29;8852;-75
2021/05/13 09:26:03;;;;;;;;;5.00;5.00;;;;;22.95;38.11;101054.38;4916235;29;8976;-75
2021/05/13 09:28:31;;;;;;;;;6.40;6.40;;;;;22.94;40.65;101063.22;4915805;29;8859;-76
2021/05/13 09:31:00;;;;;;;;;2.60;2.60;;;;;23.06;38.52;101045.06;4916281;29;8871;-74
2021/05/13 09:33:38;;;;;;;;;5.20;5.20;;;;;23.30;37.43;101061.09;4915993;29;8859;-74
2021/05/13 09:36:37;;;;;;;;;4.20;4.20;;;;;23.38;39.03;101065.47;4916279;29;8882;-75
2021/05/13 09:39:34;;;;;;;;;3.20;3.20;;;;;23.47;36.83;101060.22;4900814;29;8871;-75
2021/05/13 09:42:06;;;;;;;;;3.40;3.40;;;;;23.70;37.75;101047.63;4900491;29;9713;-75
2021/05/13 09:44:35;;;;;;;;;3.00;3.00;;;;;23.48;36.18;101055.38;4915795;29;8875;-76
2021/05/13 09:47:21;;;;;;;;;2.80;2.80;;;;;23.80;37.86;101063.69;4901751;29;8974;-75
2021/05/13 09:50:14;;;;;;;;;2.80;2.80;;;;;23.87;36.37;101060.84;4919493;29;8863;-75
2021/05/13 09:52:52;;;;;;;;;3.40;3.40;;;;;23.65;38.14;101043.22;4919302;29;8883;-75
2021/05/13 09:55:24;;;;;;;;;3.60;3.60;;;;;23.59;37.92;101036.34;4919127;29;8921;-75
2021/05/13 09:57:53;;;;;;;;;2.00;2.00;;;;;24.03;37.85;101034.91;4919244;29;8866;-76
2021/05/13 10:00:40;;;;;;;;;2.60;2.60;;;;;24.27;37.31;101045.19;4919240;29;8943;-75
2021/05/13 10:03:12;;;;;;;;;2.80;2.80;;;;;24.32;36.04;101044.78;4919142;29;8949;-75
2021/05/13 10:05:43;;;;;;;;;2.00;2.00;;;;;24.12;37.15;101047.34;4902746;29;8851;-75
2021/05/13 10:08:12;;;;;;;;;3.00;3.00;;;;;24.39;36.22;101041.09;4919190;29;8856;-75
2021/05/13 10:10:41;;;;;;;;;3.80;3.80;;;;;24.54;36.42;101044.59;4918848;29;8893;-75
2021/05/13 10:13:10;;;;;;;;;3.00;3.00;;;;;24.47;37.19;101037.00;4902259;29;8852;-76
2021/05/13 10:15:42;;;;;;;;;3.00;3.00;;;;;24.59;36.83;101038.47;4886457;29;8895;-74
2021/05/13 10:18:19;;;;;;;;;2.60;2.60;;;;;24.39;36.49;101041.09;4918429;29;8951;-76
2021/05/13 10:20:52;;;;;;;;;4.40;4.40;;;;;24.23;37.96;101035.97;4917793;29;8871;-76
2021/05/13 10:23:50;;;;;;;;;3.40;3.40;;;;;24.68;36.84;101041.59;4918214;29;8859;-75
2021/05/13 10:26:29;;;;;;;;;4.40;4.40;;;;;24.87;36.61;101045.88;4927300;29;8849;-74
2021/05/13 10:29:26;;;;;;;;;2.80;2.80;;;;;24.13;36.47;101034.81;4898738;29;9076;-76
2021/05/13 10:32:31;;;;;;;;;1.00;1.00;;;;;25.12;35.46;101037.13;4911863;29;8827;-75
2021/05/13 10:35:26;;;;;;;;;3.00;3.00;;;;;24.71;36.47;101042.81;4916192;29;8886;-73
2021/05/13 10:38:13;;;;;;;;;1.80;1.80;;;;;24.44;36.50;101032.16;4898552;29;8893;-76
2021/05/13 10:41:02;;;;;;;;;3.80;3.80;;;;;23.69;37.76;101031.88;4910487;29;8859;-73
2021/05/13 10:43:32;;;;;;;;;6.80;6.80;;;;;24.36;37.04;101033.44;4918723;29;8898;-74
2021/05/13 10:46:02;;;;;;;;;3.00;3.00;;;;;24.27;36.61;101030.25;4913695;29;9607;-74
2021/05/13 10:48:39;;;;;;;;;11.20;11.20;;;;;24.12;37.74;101032.41;4899259;29;8849;-73
2021/05/13 10:51:10;;;;;;;;;23.75;23.50;;;;;24.13;36.98;101031.97;4903424;29;8898;-74
2021/05/13 10:53:47;;;;;;;;;5.00;5.00;;;;;24.54;36.32;101027.63;4912091;29;8867;-75
2021/05/13 10:56:14;;;;;;;;;13.00;13.00;;;;;24.74;35.80;101030.66;4915446;29;8861;-75
2021/05/13 10:59:15;;;;;;;;;27.25;25.50;;;;;25.08;34.50;101027.91;4916537;29;8870;-75
2021/05/13 11:02:44;;;;;;;;;43.25;37.75;;;;;25.26;35.50;101044.66;4922298;29;8829;-74
2021/05/13 11:05:41;;;;;;;;;1.20;1.20;;;;;25.55;34.31;101026.06;4892499;29;8868;-74
2021/05/13 11:08:44;;;;;;;;;2.80;2.80;;;;;25.31;34.33;101025.19;4935646;29;8848;-75
2021/05/13 11:12:08;;;;;;;;;32.75;31.00;;;;;25.64;36.41;101019.88;4923049;29;8864;-75
2021/05/13 11:15:10;;;;;;;;;5.00;5.00;;;;;25.45;33.94;101021.31;4917707;29;8855;-75
2021/05/13 11:17:53;;;;;;;;;7.20;5.40;;;;;25.26;33.39;101019.19;4916155;29;8859;-75
2021/05/13 11:20:53;;;;;;;;;23.80;23.80;;;;;25.33;34.88;101016.25;4916729;29;8835;-76
2021/05/13 11:23:49;;;;;;;;;0.80;0.80;;;;;25.35;33.81;101025.13;4916775;29;8986;-75
2021/05/13 11:26:44;;;;;;;;;8.20;8.20;;;;;25.34;34.67;101023.53;4917013;29;8883;-75
2021/05/13 11:29:26;;;;;;;;;12.40;12.20;;;;;25.45;34.79;101024.97;4899675;29;8878;-75
2021/05/13 11:32:22;;;;;;;;;3.20;3.20;;;;;24.97;33.75;101013.81;4916197;29;8851;-74
2021/05/13 11:35:20;;;;;;;;;42.00;36.50;;;;;24.79;37.82;101033.03;4903493;29;9593;-75
2021/05/13 11:37:51;;;;;;;;;3.40;3.40;;;;;24.81;34.70;101034.22;4915027;29;8847;-75
2021/05/13 11:40:28;;;;;;;;;6.80;6.80;;;;;24.66;35.79;101042.03;4902494;29;8857;-75
2021/05/13 11:43:32;;;;;;;;;15.40;15.40;;;;;25.04;34.49;101035.59;4884770;29;8912;-75
2021/05/13 11:46:27;;;;;;;;;11.80;11.80;;;;;25.38;34.64;101024.25;4915459;29;8843;-75
2021/05/13 11:48:56;;;;;;;;;10.40;10.40;;;;;25.31;34.48;101028.00;4899983;29;8914;-76
2021/05/13 11:51:52;;;;;;;;;3.20;3.20;;;;;25.55;33.34;101028.09;4915620;29;8954;-75
2021/05/13 11:54:47;;;;;;;;;1.80;1.80;;;;;25.54;33.22;101032.16;4916043;29;8871;-74
2021/05/13 11:57:49;;;;;;;;;6.00;6.00;;;;;24.67;35.26;101018.19;4915885;29;8887;-76
2021/05/13 12:00:20;;;;;;;;;6.20;6.00;;;;;24.88;34.52;101019.19;4902114;29;8926;-76
2021/05/13 12:02:48;;;;;;;;;2.40;2.40;;;;;24.33;35.93;101017.31;4917231;29;9582;-74
2021/05/13 12:05:16;;;;;;;;;2.00;2.00;;;;;24.50;35.13;101013.53;4896722;29;8863;-77
2021/05/13 12:08:23;;;;;;;;;1.80;1.80;;;;;24.57;35.56;101007.81;4915733;29;8984;-76
2021/05/13 12:10:51;;;;;;;;;1.80;1.80;;;;;24.98;33.82;101009.75;4913875;29;9441;-75
2021/05/13 12:13:47;;;;;;;;;10.40;10.40;;;;;25.28;33.44;101011.84;4903405;29;8855;-74
2021/05/13 12:16:52;;;;;;;;;2.80;2.80;;;;;25.19;33.07;101003.88;4915607;29;8876;-74
2021/05/13 12:19:38;;;;;;;;;27.00;27.00;;;;;25.34;34.47;101004.50;4901306;29;8870;-75
2021/05/13 12:22:34;;;;;;;;;2.00;2.00;;;;;25.10;33.74;101014.13;4915070;29;8854;-75
2021/05/13 12:25:01;;;;;;;;;1.20;1.20;;;;;25.38;33.06;100998.78;4916296;29;8871;-75
2021/05/13 12:27:57;;;;;;;;;6.60;6.60;;;;;25.85;33.40;101011.09;4915121;29;8893;-75
2021/05/13 12:30:54;;;;;;;;;3.40;3.40;;;;;26.03;33.95;101005.13;4914441;29;8889;-75
2021/05/13 12:33:50;;;;;;;;;2.00;2.00;;;;;26.25;33.76;100989.38;4896420;29;8853;-75
2021/05/13 12:36:50;;;;;;;;;7.40;7.40;;;;;26.70;34.28;100991.03;4915002;29;8863;-75
2021/05/13 12:39:46;;;;;;;;;0.80;0.80;;;;;26.85;33.54;100995.97;4915452;29;8897;-75
2021/05/13 12:42:41;;;;;;;;;1.00;1.00;;;;;26.31;33.30;100998.19;4902051;29;8851;-73
2021/05/13 12:45:25;;;;;;;;;2.00;2.00;;;;;26.02;34.44;100992.19;4913152;29;8851;-76
2021/05/13 12:48:26;;;;;;;;;8.40;7.60;;;;;26.31;33.90;100987.66;4900958;29;8847;-76
2021/05/13 12:51:00;;;;;;;;;6.60;6.60;;;;;26.28;34.27;100988.50;4899935;29;8886;-75
2021/05/13 12:53:57;;;;;;;;;0.40;0.40;;;;;26.06;33.22;100982.38;4902710;29;8961;-76
2021/05/13 12:57:19;;;;;;;;;1.60;1.60;;;;;25.62;34.82;100988.34;4915172;29;8855;-76